Time;durP1;ratioP1;P1;durP2;ratioP2;P2;SDS_P1;SDS_P2;PMS_P1;PMS_P2;Temp;Humidity;BMP_temperature;BMP_pressure;BME280_temperature;BME280_humidity;BME280_pressure;Samples;Min_cycle;Max_cycle;Signal;HPM_P1;HPM_P2
2021/07/24 00:02:01;;;;;;;17.87;11.07;;;22.10;99.90;;;;;;5045872;28;20447;-52
2021/07/24 00:04:28;;;;;;;20.73;11.50;;;22.10;99.90;;;;;;5041633;28;20480;-53
2021/07/24 00:06:55;;;;;;;15.10;10.30;;;22.00;99.90;;;;;;5040110;28;20501;-55
2021/07/24 00:09:22;;;;;;;17.23;10.70;;;22.00;99.90;;;;;;5039274;28;20525;-55
2021/07/24 00:11:49;;;;;;;17.57;11.63;;;21.90;99.90;;;;;;5043021;28;20451;-56
2021/07/24 00:14:17;;;;;;;15.93;9.93;;;21.80;99.90;;;;;;5050258;28;20549;-52
2021/07/24 00:16:44;;;;;;;17.20;11.63;;;21.90;99.90;;;;;;5051398;28;20509;-54
2021/07/24 00:19:11;;;;;;;18.80;11.37;;;21.90;99.90;;;;;;5045745;28;20457;-53
2021/07/24 00:21:38;;;;;;;20.10;12.10;;;21.90;99.90;;;;;;5046486;28;20863;-52
2021/07/24 00:24:05;;;;;;;19.27;11.37;;;21.90;99.90;;;;;;5044116;28;20479;-53
2021/07/24 00:26:32;;;;;;;16.53;11.60;;;21.80;99.90;;;;;;5042696;28;20947;-53
2021/07/24 00:29:00;;;;;;;21.10;13.10;;;21.70;99.90;;;;;;5031817;28;21023;-53
2021/07/24 00:31:28;;;;;;;16.97;11.40;;;21.70;99.90;;;;;;5032793;28;20453;-53
2021/07/24 00:33:56;;;;;;;16.93;11.03;;;21.70;99.90;;;;;;5031232;28;20495;-52
2021/07/24 00:36:23;;;;;;;21.13;11.63;;;21.70;99.90;;;;;;5048590;28;20448;-52
2021/07/24 00:38:49;;;;;;;17.80;11.00;;;21.60;99.90;;;;;;5049499;28;20961;-53
2021/07/24 00:41:25;;;;;;;17.63;11.77;;;21.60;99.90;;;;;;5032077;28;20958;-53
2021/07/24 00:43:53;;;;;;;17.40;11.20;;;21.60;99.90;;;;;;5031336;28;20468;-52
2021/07/24 00:46:22;;;;;;;19.10;11.33;;;21.40;99.90;;;;;;5032502;28;20444;-53
2021/07/24 00:48:52;;;;;;;20.07;12.33;;;21.40;99.90;;;;;;5031818;28;20448;-54
2021/07/24 00:51:28;;;;;;;16.73;11.33;;;21.40;99.90;;;;;;5031400;28;21012;-53
2021/07/24 00:53:55;;;;;;;19.10;10.63;;;21.40;99.90;;;;;;5031199;28;20488;-54
2021/07/24 00:56:24;;;;;;;17.17;12.10;;;21.50;99.90;;;;;;5036491;28;20448;-52
2021/07/24 00:58:51;;;;;;;19.43;11.80;;;21.50;99.90;;;;;;5047348;28;20448;-53
2021/07/24 01:01:18;;;;;;;16.83;11.53;;;21.60;99.90;;;;;;5037975;28;20497;-53
2021/07/24 01:03:45;;;;;;;16.07;11.20;;;21.60;99.90;;;;;;5050943;28;21016;-53
2021/07/24 01:06:15;;;;;;;21.80;12.33;;;21.60;99.90;;;;;;5050719;28;20493;-53
2021/07/24 01:08:43;;;;;;;18.30;11.50;;;21.60;99.90;;;;;;5048896;28;20483;-53
2021/07/24 01:11:12;;;;;;;15.57;11.20;;;21.60;99.90;;;;;;5034446;28;20899;-53
2021/07/24 01:13:40;;;;;;;16.40;12.13;;;21.50;99.90;;;;;;5034080;28;20537;-54
2021/07/24 01:16:08;;;;;;;18.00;11.70;;;21.40;99.90;;;;;;5042594;28;20507;-53
2021/07/24 01:18:36;;;;;;;16.93;11.53;;;21.40;99.90;;;;;;5050980;28;20451;-53
2021/07/24 01:21:07;;;;;;;17.57;11.40;;;21.30;99.90;;;;;;5043401;28;20445;-54
2021/07/24 01:23:36;;;;;;;22.70;12.07;;;21.20;99.90;;;;;;5046713;28;20451;-52
2021/07/24 01:26:03;;;;;;;17.33;11.70;;;21.20;99.90;;;;;;5048858;28;20452;-53
2021/07/24 01:28:31;;;;;;;21.10;12.27;;;21.40;99.90;;;;;;5053918;28;20509;-52
2021/07/24 01:31:00;;;;;;;19.27;11.67;;;21.20;99.90;;;;;;5054420;28;20497;-53
2021/07/24 01:33:27;;;;;;;19.97;12.33;;;21.00;99.90;;;;;;5052557;28;20482;-52
2021/07/24 01:35:54;;;;;;;19.73;12.17;;;20.90;99.90;;;;;;5051537;28;20505;-53
2021/07/24 01:38:22;;;;;;;19.37;12.43;;;20.90;99.90;;;;;;5044092;28;20452;-52
2021/07/24 01:40:51;;;;;;;18.47;11.67;;;20.90;99.90;;;;;;5054363;28;20970;-52
2021/07/24 01:43:18;;;;;;;26.37;13.40;;;20.80;99.90;;;;;;5044892;28;20443;-54
2021/07/24 01:45:46;;;;;;;18.20;11.00;;;20.80;99.90;;;;;;5035388;28;20995;-53
2021/07/24 01:48:15;;;;;;;23.87;11.63;;;20.80;99.90;;;;;;5034448;28;20452;-53
2021/07/24 01:53:37;;;;;;;19.40;11.80;;;20.80;99.90;;;;;;5006578;28;20487;-52
2021/07/24 01:56:10;;;;;;;20.33;12.47;;;20.80;99.90;;;;;;5041937;28;20449;-53
2021/07/24 01:58:38;;;;;;;20.17;12.67;;;20.80;99.90;;;;;;5034476;28;20498;-53
2021/07/24 02:01:06;;;;;;;16.60;10.70;;;20.70;99.90;;;;;;5052471;28;20452;-54
2021/07/24 02:03:39;;;;;;;18.40;11.07;;;20.80;99.90;;;;;;5051352;28;20451;-52
2021/07/24 02:06:06;;;;;;;18.20;11.03;;;20.70;99.90;;;;;;5044607;28;20968;-53
2021/07/24 02:08:34;;;;;;;20.23;12.03;;;20.70;99.90;;;;;;5054319;28;20448;-53
2021/07/24 02:11:03;;;;;;;17.63;11.30;;;20.60;99.90;;;;;;5044921;28;20451;-53
2021/07/24 02:13:31;;;;;;;21.83;12.70;;;20.50;99.90;;;;;;5044591;28;20479;-53
2021/07/24 02:15:59;;;;;;;16.50;10.93;;;20.50;99.90;;;;;;5043215;28;20448;-52
2021/07/24 02:18:26;;;;;;;22.07;12.20;;;20.50;99.90;;;;;;5033898;28;20448;-52
2021/07/24 02:20:54;;;;;;;17.77;10.60;;;20.60;99.90;;;;;;5047389;28;20513;-53
2021/07/24 02:23:22;;;;;;;15.07;11.00;;;20.60;99.90;;;;;;5042632;28;20453;-53
2021/07/24 02:25:49;;;;;;;16.93;10.80;;;20.70;99.90;;;;;;5087104;23;20487;-59
2021/07/24 02:28:16;;;;;;;17.97;12.03;;;20.70;99.90;;;;;;5073575;28;20450;-60
2021/07/24 02:30:44;;;;;;;18.90;10.90;;;20.60;99.90;;;;;;5059274;28;20444;-59
2021/07/24 02:33:11;;;;;;;19.27;11.30;;;20.50;99.90;;;;;;5054193;28;20949;-59
2021/07/24 02:35:38;;;;;;;19.27;11.40;;;20.50;99.90;;;;;;5055117;28;20475;-59
2021/07/24 02:38:06;;;;;;;17.23;11.13;;;20.50;99.90;;;;;;5056729;28;21022;-59
2021/07/24 02:40:33;;;;;;;15.30;10.47;;;20.50;99.90;;;;;;5064398;28;20472;-59
2021/07/24 02:43:01;;;;;;;18.53;11.23;;;20.60;99.90;;;;;;5063118;28;20524;-59
2021/07/24 02:45:27;;;;;;;17.27;11.70;;;20.50;99.90;;;;;;5064372;28;20521;-59
2021/07/24 02:47:56;;;;;;;17.30;11.73;;;20.50;99.90;;;;;;5053467;28;20506;-59
2021/07/24 02:50:24;;;;;;;20.50;11.93;;;20.50;99.90;;;;;;5061477;28;20944;-58
2021/07/24 02:52:51;;;;;;;17.00;12.00;;;20.50;99.90;;;;;;5056261;28;20447;-59
2021/07/24 02:55:18;;;;;;;21.27;13.23;;;20.40;99.90;;;;;;5052963;28;20545;-59
2021/07/24 02:57:45;;;;;;;20.37;12.20;;;20.40;99.90;;;;;;5053043;28;20805;-59
2021/07/24 03:00:12;;;;;;;21.90;12.73;;;20.50;99.90;;;;;;5059965;28;20478;-60
2021/07/24 03:02:39;;;;;;;17.67;11.60;;;20.50;99.90;;;;;;5058557;28;21216;-59
2021/07/24 03:05:08;;;;;;;16.50;10.47;;;20.50;99.90;;;;;;5060259;28;20988;-60
2021/07/24 03:07:35;;;;;;;18.03;10.63;;;20.50;99.90;;;;;;5072807;28;20940;-59
2021/07/24 03:10:02;;;;;;;16.53;11.80;;;20.50;99.90;;;;;;5071941;28;20450;-60
2021/07/24 03:12:29;;;;;;;18.00;11.03;;;20.50;99.90;;;;;;5072471;28;20950;-59
2021/07/24 03:14:56;;;;;;;17.00;11.40;;;20.40;99.90;;;;;;5064121;28;20584;-59
2021/07/24 03:17:24;;;;;;;20.53;11.60;;;20.40;99.90;;;;;;5070959;28;20443;-59
2021/07/24 03:19:50;;;;;;;25.10;11.77;;;20.40;99.90;;;;;;5052872;28;20547;-60
2021/07/24 03:22:19;;;;;;;20.30;11.47;;;20.30;99.90;;;;;;5052741;28;20451;-59
2021/07/24 03:24:46;;;;;;;15.70;11.60;;;20.30;99.90;;;;;;5071706;28;20470;-59
2021/07/24 03:27:13;;;;;;;19.13;12.47;;;20.30;99.90;;;;;;5060102;28;20586;-59
2021/07/24 03:29:39;;;;;;;21.50;12.40;;;20.40;99.90;;;;;;5052231;28;21030;-59
2021/07/24 03:32:07;;;;;;;20.60;12.30;;;20.40;99.90;;;;;;5060671;28;20451;-59
2021/07/24 03:34:34;;;;;;;18.77;11.07;;;20.20;99.90;;;;;;5071946;28;20490;-59
2021/07/24 03:37:01;;;;;;;18.13;11.37;;;20.10;99.90;;;;;;5072161;28;20450;-59
2021/07/24 03:39:29;;;;;;;20.17;12.80;;;20.20;99.90;;;;;;5070238;28;20508;-60
2021/07/24 03:42:00;;;;;;;15.20;11.00;;;20.10;99.90;;;;;;5071208;28;20455;-59
2021/07/24 03:44:27;;;;;;;16.23;11.00;;;20.20;99.90;;;;;;5072076;28;20467;-59
2021/07/24 03:46:54;;;;;;;18.10;11.97;;;20.20;99.90;;;;;;5071689;28;20447;-59
2021/07/24 03:49:21;;;;;;;16.50;12.07;;;20.00;99.90;;;;;;5069703;28;20446;-59
2021/07/24 03:51:48;;;;;;;16.07;10.50;;;20.00;99.90;;;;;;5070314;28;20867;-60
2021/07/24 03:54:15;;;;;;;18.13;11.00;;;20.20;99.90;;;;;;5072138;28;20491;-59
2021/07/24 03:56:43;;;;;;;17.60;11.80;;;20.00;99.90;;;;;;5054157;28;20478;-60
2021/07/24 03:59:10;;;;;;;18.60;11.87;;;20.00;99.90;;;;;;5051963;28;20933;-60
2021/07/24 04:01:39;;;;;;;17.47;10.83;;;19.90;99.90;;;;;;5061872;28;20451;-59
2021/07/24 04:04:06;;;;;;;14.33;10.23;;;19.90;99.90;;;;;;5065600;28;20837;-59
2021/07/24 04:06:34;;;;;;;16.17;10.83;;;19.90;99.90;;;;;;5063900;28;20497;-60
2021/07/24 04:09:02;;;;;;;21.00;12.20;;;20.00;99.90;;;;;;5052015;28;20444;-60
2021/07/24 04:11:30;;;;;;;16.40;11.17;;;20.10;99.90;;;;;;5051896;28;20501;-59
2021/07/24 04:13:58;;;;;;;19.33;11.70;;;20.40;99.90;;;;;;5052539;28;20452;-60
2021/07/24 04:16:27;;;;;;;19.73;11.53;;;20.40;99.90;;;;;;5058292;28;20872;-59
2021/07/24 04:18:56;;;;;;;20.30;12.23;;;20.20;99.90;;;;;;5070521;28;20525;-59
2021/07/24 04:21:23;;;;;;;24.43;11.83;;;20.20;99.90;;;;;;5068039;28;20483;-60
2021/07/24 04:23:50;;;;;;;19.47;12.40;;;20.10;99.90;;;;;;5062359;28;20505;-59
2021/07/24 04:26:16;;;;;;;19.37;11.80;;;20.20;99.90;;;;;;5071703;28;20496;-59
2021/07/24 04:28:43;;;;;;;20.10;12.37;;;20.40;99.90;;;;;;5069492;28;20504;-60
2021/07/24 04:31:15;;;;;;;21.80;13.07;;;20.40;99.90;;;;;;5066700;28;20459;-60
2021/07/24 04:33:42;;;;;;;17.77;11.73;;;20.40;99.90;;;;;;5061400;28;22209;-59
2021/07/24 04:36:11;;;;;;;18.93;11.53;;;20.50;99.90;;;;;;5051360;28;20993;-59
2021/07/24 04:38:38;;;;;;;19.37;12.40;;;20.50;99.90;;;;;;5062945;28;20889;-59
2021/07/24 04:41:05;;;;;;;19.27;12.47;;;20.50;99.90;;;;;;5064584;28;20451;-59
2021/07/24 04:43:32;;;;;;;20.23;11.70;;;20.50;99.90;;;;;;5071223;28;20447;-59
2021/07/24 04:45:59;;;;;;;23.13;12.40;;;20.70;99.90;;;;;;5069348;28;20972;-60
2021/07/24 04:48:30;;;;;;;22.00;14.17;;;20.90;99.90;;;;;;5065394;28;20443;-59
2021/07/24 04:50:57;;;;;;;20.80;12.57;;;21.00;99.90;;;;;;5052423;28;20452;-59
2021/07/24 04:53:25;;;;;;;18.17;11.97;;;21.00;99.90;;;;;;5056871;28;20448;-59
2021/07/24 04:55:53;;;;;;;15.40;11.00;;;21.10;99.90;;;;;;5051087;28;20480;-59
2021/07/24 04:58:21;;;;;;;17.63;11.30;;;21.20;99.90;;;;;;5051825;28;20451;-59
2021/07/24 05:00:49;;;;;;;17.83;10.97;;;21.30;99.90;;;;;;5053887;28;20447;-59
2021/07/24 05:03:17;;;;;;;19.07;11.10;;;21.50;99.90;;;;;;5055243;28;20474;-59
2021/07/24 05:05:45;;;;;;;16.70;11.60;;;21.80;99.90;;;;;;5069278;28;20463;-60
2021/07/24 05:08:13;;;;;;;19.63;11.33;;;22.20;99.90;;;;;;5075236;28;20508;-59
2021/07/24 05:10:41;;;;;;;16.60;11.40;;;22.80;99.90;;;;;;5075011;28;20525;-60
2021/07/24 05:13:08;;;;;;;14.43;11.27;;;23.10;99.90;;;;;;5074820;28;20940;-60
2021/07/24 05:15:37;;;;;;;14.27;10.50;;;23.20;99.90;;;;;;5074692;28;20490;-60
2021/07/24 05:18:04;;;;;;;17.10;11.47;;;23.10;99.90;;;;;;5072113;28;20531;-59
2021/07/24 05:20:31;;;;;;;22.20;12.23;;;22.30;99.90;;;;;;5063756;28;20446;-59
2021/07/24 05:23:00;;;;;;;16.97;10.53;;;21.30;99.90;;;;;;5074659;28;20515;-59
2021/07/24 05:25:27;;;;;;;16.77;12.17;;;21.30;99.90;;;;;;5060726;28;20501;-60
2021/07/24 05:27:54;;;;;;;17.40;11.93;;;21.20;99.90;;;;;;5055059;28;20474;-59
2021/07/24 05:30:21;;;;;;;21.30;13.23;;;21.30;99.90;;;;;;5054778;28;20447;-59
2021/07/24 05:32:48;;;;;;;20.67;13.20;;;21.20;99.90;;;;;;5054773;28;20451;-60
2021/07/24 05:35:15;;;;;;;20.70;12.10;;;21.20;99.90;;;;;;5054726;28;20514;-59
2021/07/24 05:37:42;;;;;;;16.97;11.60;;;21.20;99.90;;;;;;5056168;28;20444;-60
2021/07/24 05:40:11;;;;;;;23.47;13.23;;;21.40;99.90;;;;;;5058430;28;20582;-59
2021/07/24 05:42:38;;;;;;;18.33;11.40;;;21.10;99.90;;;;;;5072816;28;20452;-59
2021/07/24 05:45:07;;;;;;;17.30;12.27;;;21.00;99.90;;;;;;5074425;28;20516;-59
2021/07/24 05:47:34;;;;;;;18.03;11.73;;;21.10;99.90;;;;;;5071984;28;21140;-59
2021/07/24 05:50:02;;;;;;;23.50;12.97;;;21.10;99.90;;;;;;5077204;28;20446;-59
2021/07/24 05:52:29;;;;;;;14.90;11.03;;;21.00;99.90;;;;;;5081176;28;20443;-59
2021/07/24 05:54:56;;;;;;;18.37;12.20;;;20.90;99.90;;;;;;5054159;28;20520;-59
2021/07/24 05:57:24;;;;;;;15.20;10.57;;;20.90;99.90;;;;;;5066597;28;20475;-59
2021/07/24 05:59:51;;;;;;;17.43;11.70;;;21.00;99.90;;;;;;5061436;28;20521;-59
2021/07/24 06:02:18;;;;;;;19.43;11.70;;;21.20;99.90;;;;;;5069354;28;20451;-60
2021/07/24 06:04:47;;;;;;;16.27;11.10;;;21.10;99.90;;;;;;5066711;28;20529;-59
2021/07/24 06:07:14;;;;;;;18.93;11.80;;;21.30;99.90;;;;;;5066199;28;20838;-59
2021/07/24 06:09:41;;;;;;;17.83;11.27;;;21.30;99.90;;;;;;5073966;28;20446;-60
2021/07/24 06:12:09;;;;;;;18.07;12.50;;;21.40;99.90;;;;;;5053355;28;20481;-59
2021/07/24 06:14:38;;;;;;;17.97;11.80;;;21.50;99.90;;;;;;5053840;28;21184;-59
2021/07/24 06:17:07;;;;;;;18.23;11.67;;;21.50;99.90;;;;;;5061848;28;20461;-60
2021/07/24 06:19:34;;;;;;;20.57;11.67;;;21.60;99.90;;;;;;5062458;28;20833;-60
2021/07/24 06:22:03;;;;;;;21.20;12.33;;;21.70;99.90;;;;;;5067359;28;20972;-59
2021/07/24 06:24:30;;;;;;;21.13;12.40;;;21.50;99.90;;;;;;5062090;28;21058;-59
2021/07/24 06:26:57;;;;;;;19.27;11.70;;;21.60;99.90;;;;;;5053746;28;21018;-60
2021/07/24 06:29:24;;;;;;;20.93;11.03;;;21.80;99.90;;;;;;5053749;28;20452;-59
2021/07/24 06:31:52;;;;;;;20.03;11.93;;;21.70;99.90;;;;;;5069935;28;20447;-59
2021/07/24 06:34:19;;;;;;;16.00;10.77;;;21.60;99.90;;;;;;5061183;28;21007;-60
2021/07/24 06:36:46;;;;;;;16.93;11.50;;;21.60;99.90;;;;;;5063067;28;21061;-59
2021/07/24 06:39:13;;;;;;;18.10;11.40;;;21.70;99.90;;;;;;5060076;28;20448;-60
2021/07/24 06:41:41;;;;;;;15.57;10.70;;;21.80;99.90;;;;;;5067098;28;20808;-60
2021/07/24 06:44:08;;;;;;;16.33;11.07;;;21.70;99.90;;;;;;5067691;28;20498;-60
2021/07/24 06:46:35;;;;;;;17.77;11.30;;;21.90;99.90;;;;;;5056539;28;20500;-58
2021/07/24 06:49:03;;;;;;;16.17;12.20;;;21.90;99.90;;;;;;5061839;28;20887;-59
2021/07/24 06:51:30;;;;;;;19.57;11.90;;;21.80;99.90;;;;;;5071404;28;20450;-59
2021/07/24 06:53:57;;;;;;;15.48;11.25;;;21.80;99.90;;;;;;5068963;28;20782;-60
2021/07/24 06:56:24;;;;;;;19.20;11.40;;;22.00;99.90;;;;;;5061024;28;20224;-59
2021/07/24 06:58:54;;;;;;;21.77;11.00;;;22.20;99.90;;;;;;5072962;28;20446;-59
2021/07/24 07:01:21;;;;;;;17.47;11.00;;;22.20;99.90;;;;;;5061085;28;20451;-59
2021/07/24 07:03:48;;;;;;;25.43;12.00;;;22.30;99.90;;;;;;5053184;28;20516;-59
2021/07/24 07:06:17;;;;;;;21.43;11.97;;;22.10;99.90;;;;;;5053157;28;20831;-60
2021/07/24 07:08:44;;;;;;;15.93;11.40;;;22.10;99.90;;;;;;5064127;28;20504;-60
2021/07/24 07:11:13;;;;;;;20.73;12.57;;;22.10;99.90;;;;;;5072831;28;20998;-59
2021/07/24 07:13:40;;;;;;;21.13;12.00;;;22.20;99.90;;;;;;5072284;28;20457;-59
2021/07/24 07:16:08;;;;;;;16.27;10.20;;;22.30;99.90;;;;;;5072083;28;20486;-61
2021/07/24 07:18:37;;;;;;;20.13;11.80;;;22.30;99.90;;;;;;5069444;28;20514;-58
2021/07/24 07:21:04;;;;;;;16.53;10.90;;;22.20;99.90;;;;;;5053791;28;20448;-59
2021/07/24 07:23:32;;;;;;;21.17;11.57;;;22.30;99.90;;;;;;5051608;28;20594;-60
2021/07/24 07:26:01;;;;;;;17.60;12.10;;;22.30;99.90;;;;;;5056547;28;20462;-59
2021/07/24 07:28:27;;;;;;;20.70;12.20;;;22.10;99.90;;;;;;5069263;28;20468;-59
2021/07/24 07:30:54;;;;;;;19.07;11.90;;;22.30;99.90;;;;;;5058177;28;20881;-60
2021/07/24 07:33:21;;;;;;;16.10;11.20;;;22.60;99.90;;;;;;5055139;28;20804;-60
2021/07/24 07:35:48;;;;;;;22.03;12.10;;;22.70;99.90;;;;;;5054308;28;20549;-59
2021/07/24 07:38:16;;;;;;;21.47;12.20;;;22.60;99.90;;;;;;5062007;28;20452;-60
2021/07/24 07:40:44;;;;;;;16.67;11.23;;;22.80;99.90;;;;;;5052184;28;20890;-60
2021/07/24 07:43:11;;;;;;;15.20;11.30;;;22.70;99.90;;;;;;5069401;28;20443;-59
2021/07/24 07:45:40;;;;;;;20.43;12.10;;;22.80;99.90;;;;;;5071143;28;20466;-60
2021/07/24 07:48:08;;;;;;;22.07;13.00;;;22.80;99.90;;;;;;5072129;28;20446;-59
2021/07/24 07:50:35;;;;;;;17.83;12.70;;;22.90;99.90;;;;;;5059460;28;20956;-59
2021/07/24 07:53:02;;;;;;;19.33;13.50;;;23.10;99.90;;;;;;5065104;28;20469;-59
2021/07/24 07:55:29;;;;;;;20.87;12.70;;;22.90;99.90;;;;;;5062618;28;20547;-60
2021/07/24 07:57:58;;;;;;;15.77;11.80;;;22.80;99.90;;;;;;5070418;28;20496;-60
2021/07/24 08:00:25;;;;;;;19.07;12.70;;;22.90;99.90;;;;;;5064758;28;20542;-60
2021/07/24 08:02:55;;;;;;;23.23;14.00;;;22.80;99.90;;;;;;5066662;28;20878;-60
2021/07/24 08:05:22;;;;;;;22.90;12.83;;;22.40;99.90;;;;;;5058717;28;20479;-60
2021/07/24 08:07:50;;;;;;;19.00;12.73;;;22.60;99.90;;;;;;5055170;28;20525;-60
2021/07/24 08:10:19;;;;;;;21.67;14.10;;;22.80;99.90;;;;;;5066956;28;20509;-60
2021/07/24 08:12:46;;;;;;;18.90;14.20;;;23.10;99.90;;;;;;5051113;28;20458;-59
2021/07/24 08:15:14;;;;;;;24.90;13.27;;;23.00;99.90;;;;;;5052701;28;20545;-59
2021/07/24 08:17:41;;;;;;;20.83;13.13;;;22.90;99.90;;;;;;5052655;28;20509;-59
2021/07/24 08:20:10;;;;;;;18.53;12.40;;;22.90;99.90;;;;;;5051941;28;21010;-59
2021/07/24 08:22:37;;;;;;;19.70;13.10;;;22.80;99.90;;;;;;5051223;28;20460;-60
2021/07/24 08:25:05;;;;;;;19.70;13.33;;;23.10;99.90;;;;;;5078279;22;20490;-52
2021/07/24 08:27:32;;;;;;;24.87;15.60;;;23.30;99.90;;;;;;5053646;28;20451;-53
2021/07/24 08:29:59;;;;;;;25.60;15.00;;;23.40;99.90;;;;;;5053895;28;20537;-53
2021/07/24 08:32:27;;;;;;;23.37;13.20;;;23.40;99.90;;;;;;5071149;28;20451;-54
2021/07/24 08:34:55;;;;;;;18.33;12.73;;;23.40;99.90;;;;;;5057881;28;20473;-53
2021/07/24 08:37:22;;;;;;;19.93;12.90;;;23.60;99.90;;;;;;5036339;28;20815;-51
2021/07/24 08:39:49;;;;;;;20.47;12.40;;;23.70;99.90;;;;;;5051399;28;20466;-52
2021/07/24 08:42:33;;;;;;;18.80;12.23;;;23.80;99.90;;;;;;5051261;28;20444;-53
2021/07/24 08:45:00;;;;;;;15.70;11.60;;;24.40;99.90;;;;;;5049579;28;20520;-53
2021/07/24 08:47:30;;;;;;;19.30;12.60;;;25.20;99.90;;;;;;5051125;28;20538;-53
2021/07/24 08:49:57;;;;;;;19.60;11.53;;;26.20;99.90;;;;;;5046282;28;20950;-54
2021/07/24 08:52:27;;;;;;;16.80;12.23;;;27.50;99.90;;;;;;5036860;28;20510;-53
2021/07/24 08:54:55;;;;;;;19.93;11.40;;;28.30;99.90;;;;;;5031360;28;20477;-53
2021/07/24 08:57:26;;;;;;;16.30;11.23;;;28.60;99.90;;;;;;5031150;28;21062;-53
2021/07/24 08:59:55;;;;;;;16.67;12.90;;;28.10;99.90;;;;;;5031095;28;20456;-54
2021/07/24 09:02:27;;;;;;;16.97;12.97;;;28.20;99.90;;;;;;5030956;28;20449;-53
2021/07/24 09:04:59;;;;;;;18.00;12.57;;;28.20;99.90;;;;;;5035054;28;20468;-53
2021/07/24 09:07:29;;;;;;;15.93;12.83;;;28.10;99.90;;;;;;5043590;28;20810;-54
2021/07/24 09:09:57;;;;;;;18.20;11.90;;;28.40;99.90;;;;;;5049370;28;20509;-53
2021/07/24 09:12:24;;;;;;;17.33;12.27;;;28.40;99.90;;;;;;5045490;28;20455;-52
2021/07/24 09:14:51;;;;;;;21.67;13.27;;;28.20;99.90;;;;;;5051120;28;20538;-53
2021/07/24 09:17:20;;;;;;;15.80;12.10;;;28.20;99.90;;;;;;5051099;28;20485;-53
2021/07/24 09:19:49;;;;;;;19.77;13.10;;;28.60;99.90;;;;;;5050938;28;20451;-52
2021/07/24 09:22:30;;;;;;;19.70;12.33;;;28.50;99.90;;;;;;5035787;28;20445;-53
2021/07/24 09:25:09;;;;;;;17.90;13.17;;;28.30;99.90;;;;;;5030714;28;21025;-54
2021/07/24 09:27:36;;;;;;;18.77;12.07;;;29.00;99.90;;;;;;5031080;28;20506;-54
2021/07/24 09:30:04;;;;;;;17.13;12.50;;;29.40;99.90;;;;;;5031054;28;20818;-53
2021/07/24 09:32:32;;;;;;;18.30;12.67;;;30.10;99.90;;;;;;5030139;28;20456;-55
2021/07/24 09:34:59;;;;;;;18.67;13.20;;;30.30;99.90;;;;;;5030507;28;20469;-54
2021/07/24 09:37:29;;;;;;;19.37;14.20;;;30.70;99.90;;;;;;5030213;28;20484;-53
2021/07/24 09:39:56;;;;;;;16.67;13.47;;;29.50;99.90;;;;;;5046656;28;20831;-53
2021/07/24 09:42:32;;;;;;;17.13;13.13;;;29.50;99.90;;;;;;5050443;28;20505;-53
2021/07/24 09:45:07;;;;;;;15.93;12.23;;;29.20;99.90;;;;;;5050583;28;20911;-53
2021/07/24 09:47:34;;;;;;;13.43;11.37;;;29.40;99.90;;;;;;5054055;28;20505;-54
2021/07/24 09:50:12;;;;;;;14.50;11.67;;;30.10;99.90;;;;;;5054079;28;20508;-53
2021/07/24 09:52:48;;;;;;;14.80;12.23;;;30.80;99.90;;;;;;5054075;28;20517;-53
2021/07/24 09:55:20;;;;;;;18.27;11.60;;;30.40;99.90;;;;;;5052086;28;20471;-53
2021/07/24 09:57:47;;;;;;;17.43;12.10;;;30.60;99.90;;;;;;5053988;28;20533;-54
2021/07/24 10:00:22;;;;;;;13.60;11.20;;;30.90;99.90;;;;;;5040579;28;20860;-55
2021/07/24 10:02:56;;;;;;;21.33;13.70;;;31.20;99.90;;;;;;5033748;28;20802;-53
2021/07/24 10:05:24;;;;;;;14.00;11.30;;;30.90;99.90;;;;;;5034183;28;20475;-54
2021/07/24 10:07:53;;;;;;;14.30;11.97;;;30.80;99.90;;;;;;5034078;28;20452;-53
2021/07/24 10:10:20;;;;;;;14.50;10.57;;;29.80;99.90;;;;;;5033879;28;20449;-54
2021/07/24 10:12:47;;;;;;;14.37;10.77;;;29.30;99.90;;;;;;5034528;28;20538;-54
2021/07/24 10:15:15;;;;;;;13.03;9.90;;;29.30;99.90;;;;;;5046712;28;20471;-54
2021/07/24 10:17:43;;;;;;;15.67;10.70;;;28.80;99.90;;;;;;5053725;28;20533;-53
2021/07/24 10:20:11;;;;;;;16.10;10.97;;;28.60;99.90;;;;;;5053737;28;20493;-53
2021/07/24 10:22:38;;;;;;;20.47;11.37;;;28.50;99.90;;;;;;5053408;28;20447;-53
2021/07/24 10:25:10;;;;;;;15.13;9.40;;;29.10;99.90;;;;;;5050311;28;20525;-55
2021/07/24 10:27:38;;;;;;;17.10;10.70;;;29.20;99.90;;;;;;5035634;28;20445;-54
2021/07/24 10:30:07;;;;;;;13.87;9.87;;;28.60;99.90;;;;;;5043489;28;20445;-54
2021/07/24 10:32:38;;;;;;;14.10;9.90;;;28.40;99.90;;;;;;5047065;28;21001;-52
2021/07/24 10:35:06;;;;;;;13.20;10.30;;;28.60;99.90;;;;;;5052275;28;20523;-53
2021/07/24 10:37:35;;;;;;;13.50;10.50;;;28.50;99.90;;;;;;5033336;28;20476;-52
2021/07/24 10:40:34;;;;;;;16.50;11.20;;;29.00;99.90;;;;;;5033583;28;20791;-54
2021/07/24 10:43:05;;;;;;;14.90;10.57;;;28.40;99.90;;;;;;5033267;28;20511;-53
2021/07/24 10:45:52;;;;;;;16.37;10.40;;;28.20;99.90;;;;;;5049209;28;20471;-52
2021/07/24 10:48:21;;;;;;;17.40;10.60;;;27.80;99.90;;;;;;5042733;28;20522;-53
2021/07/24 10:51:16;;;;;;;13.93;10.00;;;27.50;99.90;;;;;;5033210;28;20449;-53
2021/07/24 10:54:05;;;;;;;13.63;9.63;;;27.90;99.90;;;;;;5032952;28;20449;-52
2021/07/24 10:56:39;;;;;;;14.60;10.43;;;28.20;99.90;;;;;;5024439;28;20520;-53
2021/07/24 10:59:23;;;;;;;17.03;10.90;;;27.50;99.90;;;;;;5044101;28;20447;-52
2021/07/24 11:01:51;;;;;;;14.20;9.57;;;27.20;99.90;;;;;;5052742;28;20473;-53
2021/07/24 11:04:39;;;;;;;16.20;10.83;;;27.10;99.90;;;;;;5052741;28;20509;-53
2021/07/24 11:07:46;;;;;;;13.27;10.50;;;26.40;99.90;;;;;;5044073;28;20455;-52
2021/07/24 11:10:13;;;;;;;19.77;11.07;;;26.70;99.90;;;;;;5052706;28;20498;-52
2021/07/24 11:12:42;;;;;;;16.70;11.90;;;27.00;99.90;;;;;;5044864;28;20456;-53
2021/07/24 11:15:10;;;;;;;15.93;11.03;;;26.90;99.90;;;;;;5045043;28;20517;-53
2021/07/24 11:17:38;;;;;;;14.40;11.20;;;26.90;99.90;;;;;;5052439;28;20483;-53
2021/07/24 11:20:46;;;;;;;14.70;10.57;;;26.90;99.90;;;;;;5032263;28;20511;-53
2021/07/24 11:23:13;;;;;;;12.50;9.97;;;26.90;99.90;;;;;;5032568;28;20449;-53
2021/07/24 11:25:41;;;;;;;21.47;11.20;;;27.20;99.90;;;;;;5032260;28;20987;-53
2021/07/24 11:28:17;;;;;;;15.43;11.30;;;27.00;99.90;;;;;;5034321;28;21004;-55
2021/07/24 11:30:43;;;;;;;14.03;10.57;;;26.70;99.90;;;;;;5038241;28;20975;-53
2021/07/24 11:33:16;;;;;;;16.17;12.20;;;26.90;99.90;;;;;;5040436;28;20490;-53
2021/07/24 11:35:45;;;;;;;14.60;10.67;;;26.80;99.90;;;;;;5041768;28;20513;-53
2021/07/24 11:38:25;;;;;;;15.70;11.10;;;27.20;99.90;;;;;;5032544;28;20534;-54
2021/07/24 11:41:13;;;;;;;16.20;11.10;;;27.30;99.90;;;;;;5031611;28;20459;-53
2021/07/24 11:43:41;;;;;;;17.20;13.10;;;27.20;99.90;;;;;;5027258;28;20946;-52
2021/07/24 11:46:11;;;;;;;18.83;12.73;;;27.30;99.90;;;;;;5032395;28;20467;-53
2021/07/24 11:48:41;;;;;;;16.83;11.37;;;27.30;99.90;;;;;;5032129;28;20814;-53
2021/07/24 11:51:09;;;;;;;13.80;11.53;;;27.10;99.90;;;;;;5032434;28;20812;-52
2021/07/24 11:53:37;;;;;;;15.40;10.90;;;27.30;99.90;;;;;;5032174;28;20459;-52
2021/07/24 11:56:09;;;;;;;14.33;11.30;;;26.90;99.90;;;;;;5032239;28;20469;-52
2021/07/24 11:58:36;;;;;;;14.90;11.17;;;26.60;99.90;;;;;;5032251;28;20437;-52
2021/07/24 12:01:20;;;;;;;13.77;11.07;;;26.70;99.90;;;;;;5034303;28;20448;-54
2021/07/24 12:03:47;;;;;;;16.23;10.77;;;26.40;99.90;;;;;;5051363;28;21044;-52
2021/07/24 12:06:14;;;;;;;20.70;11.50;;;26.70;99.90;;;;;;5051798;28;20468;-53
2021/07/24 12:08:44;;;;;;;14.40;11.20;;;26.50;99.90;;;;;;5042561;28;20494;-52
2021/07/24 12:11:16;;;;;;;12.77;10.27;;;26.80;99.90;;;;;;5051837;28;20439;-52
2021/07/24 12:13:45;;;;;;;14.57;10.80;;;27.10;99.90;;;;;;5039542;28;20447;-52
2021/07/24 12:16:13;;;;;;;16.77;10.93;;;27.30;99.90;;;;;;5040574;28;20465;-52
2021/07/24 12:18:43;;;;;;;15.23;11.10;;;27.30;99.90;;;;;;5032268;28;21028;-52
2021/07/24 12:21:16;;;;;;;17.23;11.17;;;27.10;99.90;;;;;;5032897;28;20445;-54
2021/07/24 12:23:55;;;;;;;14.43;10.80;;;27.50;99.90;;;;;;5031853;28;20440;-53
2021/07/24 12:26:28;;;;;;;16.63;10.83;;;27.70;99.90;;;;;;5031609;28;21070;-53
2021/07/24 12:28:56;;;;;;;14.57;10.93;;;27.60;99.90;;;;;;5032677;28;20532;-54
2021/07/24 12:31:26;;;;;;;16.00;11.07;;;27.20;99.90;;;;;;5046948;28;20441;-53
2021/07/24 12:33:54;;;;;;;18.70;10.83;;;27.10;99.90;;;;;;5031516;28;20448;-53
2021/07/24 12:36:23;;;;;;;14.60;11.23;;;27.30;99.90;;;;;;5031406;28;20518;-52
2021/07/24 12:38:54;;;;;;;17.43;11.33;;;27.00;99.90;;;;;;5032029;28;20452;-52
2021/07/24 12:41:32;;;;;;;14.37;9.93;;;26.60;99.90;;;;;;5040301;28;20448;-53